sensor_id;sensor_type;location;lat;lon;timestamp;temperature;humidity
31725;DHT22;18306;40.960;14.836;2023-04-21T00:00:43;14.70;99.90
31725;DHT22;18306;40.960;14.836;2023-04-21T00:03:12;14.80;99.90
31725;DHT22;18306;40.960;14.836;2023-04-21T00:05:39;14.80;99.90
31725;DHT22;18306;40.960;14.836;2023-04-21T00:08:14;14.80;99.90
31725;DHT22;18306;40.960;14.836;2023-04-21T00:10:42;14.80;99.90
31725;DHT22;18306;40.960;14.836;2023-04-21T00:13:10;14.80;99.90
31725;DHT22;18306;40.960;14.836;2023-04-21T00:15:37;14.70;99.90
31725;DHT22;18306;40.960;14.836;2023-04-21T00:18:05;14.60;99.90
31725;DHT22;18306;40.960;14.836;2023-04-21T00:20:38;14.50;99.90
31725;DHT22;18306;40.960;14.836;2023-04-21T00:23:09;14.60;99.90
31725;DHT22;18306;40.960;14.836;2023-04-21T00:25:36;14.60;99.90
31725;DHT22;18306;40.960;14.836;2023-04-21T00:28:03;14.60;99.90
31725;DHT22;18306;40.960;14.836;2023-04-21T00:30:33;14.70;99.90
31725;DHT22;18306;40.960;14.836;2023-04-21T00:33:04;14.70;99.90
31725;DHT22;18306;40.960;14.836;2023-04-21T00:35:31;14.90;99.90
31725;DHT22;18306;40.960;14.836;2023-04-21T00:38:00;14.90;99.90
31725;DHT22;18306;40.960;14.836;2023-04-21T00:40:29;14.90;99.90
31725;DHT22;18306;40.960;14.836;2023-04-21T00:42:56;15.00;99.90
31725;DHT22;18306;40.960;14.836;2023-04-21T00:45:24;15.00;99.90
31725;DHT22;18306;40.960;14.836;2023-04-21T00:47:51;14.80;99.90
31725;DHT22;18306;40.960;14.836;2023-04-21T00:50:21;14.70;99.90
31725;DHT22;18306;40.960;14.836;2023-04-21T00:52:48;14.70;99.90
31725;DHT22;18306;40.960;14.836;2023-04-21T00:55:18;14.80;99.90
31725;DHT22;18306;40.960;14.836;2023-04-21T00:57:45;14.80;99.90
31725;DHT22;18306;40.960;14.836;2023-04-21T01:00:12;14.50;99.90
31725;DHT22;18306;40.960;14.836;2023-04-21T01:02:40;14.30;99.90
31725;DHT22;18306;40.960;14.836;2023-04-21T01:05:07;14.10;99.90
31725;DHT22;18306;40.960;14.836;2023-04-21T01:07:35;14.10;99.90
31725;DHT22;18306;40.960;14.836;2023-04-21T01:10:03;14.00;99.90
31725;DHT22;18306;40.960;14.836;2023-04-21T01:12:30;14.00;99.90
31725;DHT22;18306;40.960;14.836;2023-04-21T01:14:58;14.00;99.90
31725;DHT22;18306;40.960;14.836;2023-04-21T01:17:26;13.80;99.90
31725;DHT22;18306;40.960;14.836;2023-04-21T01:19:55;13.80;99.90
31725;DHT22;18306;40.960;14.836;2023-04-21T01:22:23;13.80;99.90
31725;DHT22;18306;40.960;14.836;2023-04-21T01:24:50;13.80;99.90
31725;DHT22;18306;40.960;14.836;2023-04-21T01:27:19;13.80;99.90
31725;DHT22;18306;40.960;14.836;2023-04-21T01:29:50;13.70;99.90
31725;DHT22;18306;40.960;14.836;2023-04-21T01:32:20;13.60;99.90
31725;DHT22;18306;40.960;14.836;2023-04-21T01:34:49;13.50;99.90
31725;DHT22;18306;40.960;14.836;2023-04-21T01:37:19;13.50;99.90
31725;DHT22;18306;40.960;14.836;2023-04-21T01:39:50;13.60;99.90
31725;DHT22;18306;40.960;14.836;2023-04-21T01:42:19;13.60;99.90
31725;DHT22;18306;40.960;14.836;2023-04-21T01:44:50;13.60;99.90
31725;DHT22;18306;40.960;14.836;2023-04-21T01:47:21;13.60;99.90
31725;DHT22;18306;40.960;14.836;2023-04-21T01:49:49;13.70;99.90
31725;DHT22;18306;40.960;14.836;2023-04-21T01:52:17;13.60;99.90
31725;DHT22;18306;40.960;14.836;2023-04-21T01:54:45;13.50;99.90
31725;DHT22;18306;40.960;14.836;2023-04-21T01:57:16;13.50;99.90
31725;DHT22;18306;40.960;14.836;2023-04-21T01:59:44;13.40;99.90
31725;DHT22;18306;40.960;14.836;2023-04-21T02:02:13;13.30;99.90
31725;DHT22;18306;40.960;14.836;2023-04-21T02:04:40;13.20;99.90
31725;DHT22;18306;40.960;14.836;2023-04-21T02:07:10;13.20;99.90
31725;DHT22;18306;40.960;14.836;2023-04-21T02:09:39;13.20;99.90
31725;DHT22;18306;40.960;14.836;2023-04-21T02:12:07;13.10;99.90
31725;DHT22;18306;40.960;14.836;2023-04-21T02:14:35;13.10;99.90
31725;DHT22;18306;40.960;14.836;2023-04-21T02:17:02;13.10;99.90
31725;DHT22;18306;40.960;14.836;2023-04-21T02:19:30;13.00;99.90
31725;DHT22;18306;40.960;14.836;2023-04-21T02:21:57;13.00;99.90
31725;DHT22;18306;40.960;14.836;2023-04-21T02:24:24;13.00;99.90
31725;DHT22;18306;40.960;14.836;2023-04-21T02:26:53;13.10;99.90
31725;DHT22;18306;40.960;14.836;2023-04-21T02:29:20;13.20;99.90
31725;DHT22;18306;40.960;14.836;2023-04-21T02:31:47;13.10;99.90
31725;DHT22;18306;40.960;14.836;2023-04-21T02:34:16;13.00;99.90
31725;DHT22;18306;40.960;14.836;2023-04-21T02:36:43;13.10;99.90
31725;DHT22;18306;40.960;14.836;2023-04-21T02:39:10;13.00;99.90
31725;DHT22;18306;40.960;14.836;2023-04-21T02:41:39;13.20;99.90
31725;DHT22;18306;40.960;14.836;2023-04-21T02:44:14;13.10;99.90
31725;DHT22;18306;40.960;14.836;2023-04-21T02:46:41;13.00;99.90
31725;DHT22;18306;40.960;14.836;2023-04-21T02:49:09;12.90;99.90
31725;DHT22;18306;40.960;14.836;2023-04-21T02:51:36;12.70;99.90
31725;DHT22;18306;40.960;14.836;2023-04-21T02:54:06;12.70;99.90
31725;DHT22;18306;40.960;14.836;2023-04-21T02:56:33;12.70;99.90
31725;DHT22;18306;40.960;14.836;2023-04-21T02:59:02;12.70;99.90
31725;DHT22;18306;40.960;14.836;2023-04-21T03:01:28;12.60;99.90
31725;DHT22;18306;40.960;14.836;2023-04-21T03:03:55;12.50;99.90
31725;DHT22;18306;40.960;14.836;2023-04-21T03:06:23;12.40;99.90
31725;DHT22;18306;40.960;14.836;2023-04-21T03:08:49;12.50;99.90
31725;DHT22;18306;40.960;14.836;2023-04-21T03:11:17;12.60;99.90
31725;DHT22;18306;40.960;14.836;2023-04-21T03:13:45;12.60;99.90
31725;DHT22;18306;40.960;14.836;2023-04-21T03:16:12;12.70;99.90
31725;DHT22;18306;40.960;14.836;2023-04-21T03:18:39;12.80;99.90
31725;DHT22;18306;40.960;14.836;2023-04-21T03:21:06;12.90;99.90
31725;DHT22;18306;40.960;14.836;2023-04-21T03:23:33;12.80;99.90
31725;DHT22;18306;40.960;14.836;2023-04-21T03:26:06;12.80;99.90
31725;DHT22;18306;40.960;14.836;2023-04-21T03:28:48;12.80;99.90
31725;DHT22;18306;40.960;14.836;2023-04-21T03:31:25;12.90;99.90
31725;DHT22;18306;40.960;14.836;2023-04-21T03:34:08;13.00;99.90
31725;DHT22;18306;40.960;14.836;2023-04-21T03:36:49;13.00;99.90
31725;DHT22;18306;40.960;14.836;2023-04-21T03:39:23;12.90;99.90
31725;DHT22;18306;40.960;14.836;2023-04-21T03:41:51;12.80;99.90
31725;DHT22;18306;40.960;14.836;2023-04-21T03:44:18;12.80;99.90
31725;DHT22;18306;40.960;14.836;2023-04-21T03:46:45;12.90;99.90
31725;DHT22;18306;40.960;14.836;2023-04-21T03:49:12;13.00;99.90
31725;DHT22;18306;40.960;14.836;2023-04-21T03:51:40;13.10;99.90
31725;DHT22;18306;40.960;14.836;2023-04-21T03:54:07;13.00;99.90
31725;DHT22;18306;40.960;14.836;2023-04-21T03:56:34;13.00;99.90
31725;DHT22;18306;40.960;14.836;2023-04-21T03:59:01;12.80;99.90
31725;DHT22;18306;40.960;14.836;2023-04-21T04:01:27;12.70;99.90
31725;DHT22;18306;40.960;14.836;2023-04-21T04:03:55;12.70;99.90
31725;DHT22;18306;40.960;14.836;2023-04-21T04:06:22;12.60;99.90
31725;DHT22;18306;40.960;14.836;2023-04-21T04:08:49;12.80;99.90
31725;DHT22;18306;40.960;14.836;2023-04-21T04:11:16;12.90;99.90
31725;DHT22;18306;40.960;14.836;2023-04-21T04:13:43;12.80;99.90
31725;DHT22;18306;40.960;14.836;2023-04-21T04:16:10;12.70;99.90
31725;DHT22;18306;40.960;14.836;2023-04-21T04:18:37;12.60;99.90
31725;DHT22;18306;40.960;14.836;2023-04-21T04:21:07;12.50;99.90
31725;DHT22;18306;40.960;14.836;2023-04-21T04:23:34;12.50;99.90
31725;DHT22;18306;40.960;14.836;2023-04-21T04:26:01;12.60;99.90
31725;DHT22;18306;40.960;14.836;2023-04-21T04:28:31;12.50;99.90
31725;DHT22;18306;40.960;14.836;2023-04-21T04:30:58;12.40;99.90
31725;DHT22;18306;40.960;14.836;2023-04-21T04:33:26;12.40;99.90
31725;DHT22;18306;40.960;14.836;2023-04-21T04:35:53;12.50;99.90
31725;DHT22;18306;40.960;14.836;2023-04-21T04:38:20;12.50;99.90
31725;DHT22;18306;40.960;14.836;2023-04-21T04:40:54;12.20;99.90
31725;DHT22;18306;40.960;14.836;2023-04-21T04:43:23;12.10;99.90
31725;DHT22;18306;40.960;14.836;2023-04-21T04:45:51;12.20;99.90
31725;DHT22;18306;40.960;14.836;2023-04-21T04:48:18;12.40;99.90
31725;DHT22;18306;40.960;14.836;2023-04-21T04:50:45;12.50;99.90
31725;DHT22;18306;40.960;14.836;2023-04-21T04:53:12;12.70;99.90
31725;DHT22;18306;40.960;14.836;2023-04-21T04:55:39;12.90;99.90
31725;DHT22;18306;40.960;14.836;2023-04-21T04:58:06;13.00;99.90
31725;DHT22;18306;40.960;14.836;2023-04-21T05:00:33;13.10;99.90
31725;DHT22;18306;40.960;14.836;2023-04-21T05:03:00;13.10;99.90
31725;DHT22;18306;40.960;14.836;2023-04-21T05:05:27;13.00;99.90
31725;DHT22;18306;40.960;14.836;2023-04-21T05:07:54;12.90;99.90
31725;DHT22;18306;40.960;14.836;2023-04-21T05:10:21;13.10;99.90
31725;DHT22;18306;40.960;14.836;2023-04-21T05:12:49;13.20;99.90
31725;DHT22;18306;40.960;14.836;2023-04-21T05:15:16;13.30;99.90
31725;DHT22;18306;40.960;14.836;2023-04-21T05:17:44;13.40;99.90
31725;DHT22;18306;40.960;14.836;2023-04-21T05:20:12;13.30;99.90
31725;DHT22;18306;40.960;14.836;2023-04-21T05:22:39;13.30;99.90
31725;DHT22;18306;40.960;14.836;2023-04-21T05:25:07;13.30;99.90
31725;DHT22;18306;40.960;14.836;2023-04-21T05:27:36;13.00;99.90
31725;DHT22;18306;40.960;14.836;2023-04-21T05:30:03;13.10;99.90
31725;DHT22;18306;40.960;14.836;2023-04-21T05:32:30;13.10;99.90
31725;DHT22;18306;40.960;14.836;2023-04-21T05:34:58;13.10;99.90
31725;DHT22;18306;40.960;14.836;2023-04-21T05:37:26;13.10;99.90
31725;DHT22;18306;40.960;14.836;2023-04-21T05:39:53;13.00;99.90
31725;DHT22;18306;40.960;14.836;2023-04-21T05:42:23;12.90;99.90
31725;DHT22;18306;40.960;14.836;2023-04-21T05:44:50;12.90;99.90
31725;DHT22;18306;40.960;14.836;2023-04-21T05:47:17;12.90;99.90
31725;DHT22;18306;40.960;14.836;2023-04-21T05:49:44;13.00;99.90
31725;DHT22;18306;40.960;14.836;2023-04-21T05:52:15;13.20;99.90
31725;DHT22;18306;40.960;14.836;2023-04-21T05:54:47;13.10;99.90
31725;DHT22;18306;40.960;14.836;2023-04-21T05:57:14;13.10;99.90
31725;DHT22;18306;40.960;14.836;2023-04-21T05:59:44;13.20;99.90
31725;DHT22;18306;40.960;14.836;2023-04-21T06:02:11;13.20;99.90
31725;DHT22;18306;40.960;14.836;2023-04-21T06:04:38;13.30;99.90
31725;DHT22;18306;40.960;14.836;2023-04-21T06:07:06;13.30;99.90
31725;DHT22;18306;40.960;14.836;2023-04-21T06:09:34;13.20;99.90
31725;DHT22;18306;40.960;14.836;2023-04-21T06:12:02;13.40;99.90
31725;DHT22;18306;40.960;14.836;2023-04-21T06:14:29;13.40;99.90
31725;DHT22;18306;40.960;14.836;2023-04-21T06:16:57;13.20;99.90
31725;DHT22;18306;40.960;14.836;2023-04-21T06:19:24;13.20;99.90
31725;DHT22;18306;40.960;14.836;2023-04-21T06:21:51;13.30;99.90
31725;DHT22;18306;40.960;14.836;2023-04-21T06:24:18;13.40;99.90
31725;DHT22;18306;40.960;14.836;2023-04-21T06:26:51;13.60;99.90
31725;DHT22;18306;40.960;14.836;2023-04-21T06:29:26;13.60;99.90
31725;DHT22;18306;40.960;14.836;2023-04-21T06:31:53;13.50;99.90
31725;DHT22;18306;40.960;14.836;2023-04-21T06:34:20;13.70;99.90
31725;DHT22;18306;40.960;14.836;2023-04-21T06:36:48;13.90;99.90
31725;DHT22;18306;40.960;14.836;2023-04-21T06:39:15;14.20;99.90
31725;DHT22;18306;40.960;14.836;2023-04-21T06:41:43;14.40;99.90
31725;DHT22;18306;40.960;14.836;2023-04-21T06:44:10;14.60;99.90
31725;DHT22;18306;40.960;14.836;2023-04-21T06:46:40;14.70;99.90
31725;DHT22;18306;40.960;14.836;2023-04-21T06:49:08;14.70;99.90
31725;DHT22;18306;40.960;14.836;2023-04-21T06:51:35;14.80;99.90
31725;DHT22;18306;40.960;14.836;2023-04-21T06:54:03;14.90;99.90
31725;DHT22;18306;40.960;14.836;2023-04-21T06:56:31;14.90;99.90
31725;DHT22;18306;40.960;14.836;2023-04-21T06:58:59;14.90;99.90
31725;DHT22;18306;40.960;14.836;2023-04-21T07:01:26;14.90;99.90
31725;DHT22;18306;40.960;14.836;2023-04-21T07:03:53;15.10;99.90
31725;DHT22;18306;40.960;14.836;2023-04-21T07:06:20;15.20;99.90
31725;DHT22;18306;40.960;14.836;2023-04-21T07:08:47;15.40;99.90
31725;DHT22;18306;40.960;14.836;2023-04-21T07:11:14;15.50;99.90
31725;DHT22;18306;40.960;14.836;2023-04-21T07:13:41;15.70;99.90
31725;DHT22;18306;40.960;14.836;2023-04-21T07:16:09;15.90;99.90
31725;DHT22;18306;40.960;14.836;2023-04-21T07:18:38;16.10;99.90
31725;DHT22;18306;40.960;14.836;2023-04-21T07:21:06;16.20;99.90
31725;DHT22;18306;40.960;14.836;2023-04-21T07:23:33;16.20;99.90
31725;DHT22;18306;40.960;14.836;2023-04-21T07:26:00;16.40;99.90
31725;DHT22;18306;40.960;14.836;2023-04-21T07:28:28;16.70;99.90
31725;DHT22;18306;40.960;14.836;2023-04-21T07:31:00;17.00;99.90
31725;DHT22;18306;40.960;14.836;2023-04-21T07:33:27;17.20;99.90
31725;DHT22;18306;40.960;14.836;2023-04-21T07:35:55;17.30;99.90
31725;DHT22;18306;40.960;14.836;2023-04-21T07:38:24;17.70;99.90
31725;DHT22;18306;40.960;14.836;2023-04-21T07:40:54;18.20;99.90
31725;DHT22;18306;40.960;14.836;2023-04-21T07:43:23;18.40;99.90
31725;DHT22;18306;40.960;14.836;2023-04-21T07:45:55;18.70;99.90
31725;DHT22;18306;40.960;14.836;2023-04-21T07:48:22;19.20;99.90
31725;DHT22;18306;40.960;14.836;2023-04-21T07:50:49;19.30;99.90
31725;DHT22;18306;40.960;14.836;2023-04-21T07:53:21;19.70;99.90
31725;DHT22;18306;40.960;14.836;2023-04-21T07:55:53;19.80;99.90
31725;DHT22;18306;40.960;14.836;2023-04-21T07:58:22;19.90;99.90
31725;DHT22;18306;40.960;14.836;2023-04-21T08:00:49;19.80;99.90
31725;DHT22;18306;40.960;14.836;2023-04-21T08:03:16;19.70;99.90
31725;DHT22;18306;40.960;14.836;2023-04-21T08:05:43;19.80;99.90
31725;DHT22;18306;40.960;14.836;2023-04-21T08:08:10;19.90;99.90
31725;DHT22;18306;40.960;14.836;2023-04-21T08:10:37;20.00;99.90
31725;DHT22;18306;40.960;14.836;2023-04-21T08:13:31;20.00;99.90
31725;DHT22;18306;40.960;14.836;2023-04-21T08:16:58;20.00;99.90
31725;DHT22;18306;40.960;14.836;2023-04-21T08:19:33;19.70;99.90
31725;DHT22;18306;40.960;14.836;2023-04-21T08:22:23;19.70;99.90
31725;DHT22;18306;40.960;14.836;2023-04-21T08:24:59;19.50;99.90
31725;DHT22;18306;40.960;14.836;2023-04-21T08:28:14;19.50;99.90
31725;DHT22;18306;40.960;14.836;2023-04-21T08:31:35;19.70;99.90
31725;DHT22;18306;40.960;14.836;2023-04-21T08:34:12;18.60;99.90
31725;DHT22;18306;40.960;14.836;2023-04-21T08:36:55;19.80;99.90
31725;DHT22;18306;40.960;14.836;2023-04-21T08:39:34;19.20;99.90
31725;DHT22;18306;40.960;14.836;2023-04-21T08:42:25;19.10;99.90
31725;DHT22;18306;40.960;14.836;2023-04-21T08:45:18;19.30;99.90
31725;DHT22;18306;40.960;14.836;2023-04-21T08:48:22;19.50;99.90
31725;DHT22;18306;40.960;14.836;2023-04-21T08:51:05;19.70;99.90
31725;DHT22;18306;40.960;14.836;2023-04-21T08:53:42;19.80;99.90
31725;DHT22;18306;40.960;14.836;2023-04-21T08:56:40;19.80;99.90
31725;DHT22;18306;40.960;14.836;2023-04-21T08:59:10;19.90;99.90
31725;DHT22;18306;40.960;14.836;2023-04-21T09:04:50;19.80;99.90
31725;DHT22;18306;40.960;14.836;2023-04-21T09:07:35;19.90;99.90
31725;DHT22;18306;40.960;14.836;2023-04-21T09:10:14;19.90;99.90
31725;DHT22;18306;40.960;14.836;2023-04-21T09:12:51;19.70;99.90
31725;DHT22;18306;40.960;14.836;2023-04-21T09:15:47;20.10;99.90
31725;DHT22;18306;40.960;14.836;2023-04-21T09:18:31;20.10;99.90
31725;DHT22;18306;40.960;14.836;2023-04-21T09:21:16;20.30;99.90
31725;DHT22;18306;40.960;14.836;2023-04-21T09:23:51;20.10;99.90
31725;DHT22;18306;40.960;14.836;2023-04-21T09:26:20;20.00;99.90
31725;DHT22;18306;40.960;14.836;2023-04-21T09:29:08;19.90;99.90
31725;DHT22;18306;40.960;14.836;2023-04-21T09:31:37;19.40;99.90
31725;DHT22;18306;40.960;14.836;2023-04-21T09:34:24;19.80;99.90
31725;DHT22;18306;40.960;14.836;2023-04-21T09:37:03;20.80;99.90
31725;DHT22;18306;40.960;14.836;2023-04-21T09:40:29;20.00;99.90
31725;DHT22;18306;40.960;14.836;2023-04-21T09:43:22;19.90;99.90
31725;DHT22;18306;40.960;14.836;2023-04-21T09:46:07;20.00;99.90
31725;DHT22;18306;40.960;14.836;2023-04-21T09:48:57;19.80;99.90
31725;DHT22;18306;40.960;14.836;2023-04-21T09:52:28;19.80;99.90
31725;DHT22;18306;40.960;14.836;2023-04-21T09:55:52;19.70;99.90
31725;DHT22;18306;40.960;14.836;2023-04-21T09:59:10;19.80;99.90
31725;DHT22;18306;40.960;14.836;2023-04-21T10:02:02;20.00;99.90
31725;DHT22;18306;40.960;14.836;2023-04-21T10:04:50;20.00;99.90
31725;DHT22;18306;40.960;14.836;2023-04-21T10:07:58;20.10;99.90
31725;DHT22;18306;40.960;14.836;2023-04-21T10:11:10;20.40;99.90
31725;DHT22;18306;40.960;14.836;2023-04-21T10:13:53;20.50;99.90
31725;DHT22;18306;40.960;14.836;2023-04-21T10:16:26;20.70;99.90
31725;DHT22;18306;40.960;14.836;2023-04-21T10:19:25;20.70;99.90
31725;DHT22;18306;40.960;14.836;2023-04-21T10:22:25;20.90;99.90
31725;DHT22;18306;40.960;14.836;2023-04-21T10:25:08;20.60;99.90
31725;DHT22;18306;40.960;14.836;2023-04-21T10:27:59;21.00;99.90
31725;DHT22;18306;40.960;14.836;2023-04-21T10:30:44;20.20;99.90
31725;DHT22;18306;40.960;14.836;2023-04-21T10:33:17;21.30;99.90
31725;DHT22;18306;40.960;14.836;2023-04-21T10:36:02;21.40;99.90
31725;DHT22;18306;40.960;14.836;2023-04-21T10:38:43;21.40;99.90
31725;DHT22;18306;40.960;14.836;2023-04-21T10:41:30;21.40;99.90
31725;DHT22;18306;40.960;14.836;2023-04-21T10:43:59;21.10;99.70
31725;DHT22;18306;40.960;14.836;2023-04-21T10:46:34;21.40;99.90
31725;DHT22;18306;40.960;14.836;2023-04-21T10:49:10;21.40;99.70
31725;DHT22;18306;40.960;14.836;2023-04-21T10:54:42;21.80;99.30
31725;DHT22;18306;40.960;14.836;2023-04-21T10:57:36;21.80;99.10
31725;DHT22;18306;40.960;14.836;2023-04-21T11:00:03;21.90;98.70
31725;DHT22;18306;40.960;14.836;2023-04-21T11:02:34;22.10;98.90
31725;DHT22;18306;40.960;14.836;2023-04-21T11:05:01;22.20;98.30
31725;DHT22;18306;40.960;14.836;2023-04-21T11:07:32;22.40;98.00
31725;DHT22;18306;40.960;14.836;2023-04-21T11:10:04;22.40;99.10
31725;DHT22;18306;40.960;14.836;2023-04-21T11:12:37;22.40;97.70
31725;DHT22;18306;40.960;14.836;2023-04-21T11:15:07;22.30;98.30
31725;DHT22;18306;40.960;14.836;2023-04-21T11:17:35;22.20;97.20
31725;DHT22;18306;40.960;14.836;2023-04-21T11:20:05;22.00;97.30
31725;DHT22;18306;40.960;14.836;2023-04-21T11:22:33;22.10;97.60
31725;DHT22;18306;40.960;14.836;2023-04-21T11:25:02;22.20;96.90
31725;DHT22;18306;40.960;14.836;2023-04-21T11:27:30;22.30;96.70
31725;DHT22;18306;40.960;14.836;2023-04-21T11:29:57;22.10;96.80
31725;DHT22;18306;40.960;14.836;2023-04-21T11:32:24;22.00;96.80
31725;DHT22;18306;40.960;14.836;2023-04-21T11:34:51;22.00;96.20
31725;DHT22;18306;40.960;14.836;2023-04-21T11:37:23;21.90;95.60
31725;DHT22;18306;40.960;14.836;2023-04-21T11:39:56;22.00;97.30
31725;DHT22;18306;40.960;14.836;2023-04-21T11:42:24;21.90;95.90
31725;DHT22;18306;40.960;14.836;2023-04-21T11:44:53;21.90;96.00
31725;DHT22;18306;40.960;14.836;2023-04-21T11:47:25;22.00;95.70
31725;DHT22;18306;40.960;14.836;2023-04-21T11:50:00;22.20;95.40
31725;DHT22;18306;40.960;14.836;2023-04-21T11:53:07;22.40;95.80
31725;DHT22;18306;40.960;14.836;2023-04-21T11:56:19;22.80;94.70
31725;DHT22;18306;40.960;14.836;2023-04-21T11:58:51;22.80;94.30
31725;DHT22;18306;40.960;14.836;2023-04-21T12:01:25;22.60;94.00
31725;DHT22;18306;40.960;14.836;2023-04-21T12:04:03;22.50;93.40
31725;DHT22;18306;40.960;14.836;2023-04-21T12:51:11;22.80;93.10
31725;DHT22;18306;40.960;14.836;2023-04-21T12:57:59;23.50;92.90
31725;DHT22;18306;40.960;14.836;2023-04-21T13:00:55;23.30;92.90
31725;DHT22;18306;40.960;14.836;2023-04-21T13:04:10;23.20;93.10
31725;DHT22;18306;40.960;14.836;2023-04-21T13:06:38;23.20;92.80
31725;DHT22;18306;40.960;14.836;2023-04-21T13:09:12;23.20;93.60
31725;DHT22;18306;40.960;14.836;2023-04-21T13:11:42;23.30;93.60
31725;DHT22;18306;40.960;14.836;2023-04-21T13:14:16;23.50;94.10
31725;DHT22;18306;40.960;14.836;2023-04-21T13:16:43;23.30;93.90
31725;DHT22;18306;40.960;14.836;2023-04-21T13:19:11;23.30;92.90
31725;DHT22;18306;40.960;14.836;2023-04-21T13:21:38;22.90;92.30
31725;DHT22;18306;40.960;14.836;2023-04-21T13:24:05;23.00;92.70
31725;DHT22;18306;40.960;14.836;2023-04-21T13:26:35;22.80;93.40
31725;DHT22;18306;40.960;14.836;2023-04-21T13:29:03;22.90;92.10
31725;DHT22;18306;40.960;14.836;2023-04-21T13:31:30;23.00;91.50
31725;DHT22;18306;40.960;14.836;2023-04-21T13:33:58;23.10;91.80
31725;DHT22;18306;40.960;14.836;2023-04-21T13:36:26;23.20;91.80
31725;DHT22;18306;40.960;14.836;2023-04-21T13:38:54;23.10;92.10
31725;DHT22;18306;40.960;14.836;2023-04-21T13:41:22;23.10;91.80
31725;DHT22;18306;40.960;14.836;2023-04-21T13:43:50;23.30;92.20
31725;DHT22;18306;40.960;14.836;2023-04-21T13:46:18;23.30;92.00
31725;DHT22;18306;40.960;14.836;2023-04-21T13:48:45;23.10;92.40
31725;DHT22;18306;40.960;14.836;2023-04-21T13:51:13;23.00;92.90
31725;DHT22;18306;40.960;14.836;2023-04-21T13:53:41;22.90;92.80
31725;DHT22;18306;40.960;14.836;2023-04-21T13:56:08;22.70;92.60
31725;DHT22;18306;40.960;14.836;2023-04-21T13:58:37;22.70;92.20
31725;DHT22;18306;40.960;14.836;2023-04-21T14:01:32;22.90;92.20
31725;DHT22;18306;40.960;14.836;2023-04-21T14:04:05;23.10;93.00
31725;DHT22;18306;40.960;14.836;2023-04-21T14:10:10;23.30;92.80
31725;DHT22;18306;40.960;14.836;2023-04-21T14:13:06;22.60;95.20
31725;DHT22;18306;40.960;14.836;2023-04-21T14:16:18;22.20;96.60
31725;DHT22;18306;40.960;14.836;2023-04-21T14:18:48;22.20;96.80
31725;DHT22;18306;40.960;14.836;2023-04-21T14:21:28;22.40;97.20
31725;DHT22;18306;40.960;14.836;2023-04-21T14:24:34;22.50;97.40
31725;DHT22;18306;40.960;14.836;2023-04-21T14:27:15;22.40;97.20
31725;DHT22;18306;40.960;14.836;2023-04-21T14:29:49;22.90;97.20
31725;DHT22;18306;40.960;14.836;2023-04-21T14:32:25;22.30;97.50
31725;DHT22;18306;40.960;14.836;2023-04-21T14:35:02;22.50;97.40
31725;DHT22;18306;40.960;14.836;2023-04-21T14:37:43;22.60;96.50
31725;DHT22;18306;40.960;14.836;2023-04-21T14:40:44;22.30;96.60
31725;DHT22;18306;40.960;14.836;2023-04-21T14:43:35;22.10;96.60
31725;DHT22;18306;40.960;14.836;2023-04-21T14:46:06;21.80;95.60
31725;DHT22;18306;40.960;14.836;2023-04-21T14:48:48;22.10;95.90
31725;DHT22;18306;40.960;14.836;2023-04-21T14:51:24;22.00;95.90
31725;DHT22;18306;40.960;14.836;2023-04-21T14:53:52;21.80;96.60
31725;DHT22;18306;40.960;14.836;2023-04-21T14:56:53;21.70;96.10
31725;DHT22;18306;40.960;14.836;2023-04-21T14:59:34;21.60;96.40
31725;DHT22;18306;40.960;14.836;2023-04-21T15:02:03;21.60;96.60
31725;DHT22;18306;40.960;14.836;2023-04-21T15:05:06;21.70;96.70
31725;DHT22;18306;40.960;14.836;2023-04-21T15:07:51;21.70;96.60
31725;DHT22;18306;40.960;14.836;2023-04-21T15:10:51;21.80;96.70
31725;DHT22;18306;40.960;14.836;2023-04-21T15:13:21;21.80;96.00
31725;DHT22;18306;40.960;14.836;2023-04-21T15:15:53;22.00;95.60
31725;DHT22;18306;40.960;14.836;2023-04-21T15:18:26;22.00;95.50
31725;DHT22;18306;40.960;14.836;2023-04-21T15:21:30;22.10;95.60
31725;DHT22;18306;40.960;14.836;2023-04-21T15:24:29;22.00;96.70
31725;DHT22;18306;40.960;14.836;2023-04-21T15:27:03;21.80;96.20
31725;DHT22;18306;40.960;14.836;2023-04-21T15:36:07;22.30;96.80
31725;DHT22;18306;40.960;14.836;2023-04-21T15:39:04;22.10;95.50
31725;DHT22;18306;40.960;14.836;2023-04-21T15:44:31;21.90;95.40
31725;DHT22;18306;40.960;14.836;2023-04-21T15:47:09;22.00;95.60
31725;DHT22;18306;40.960;14.836;2023-04-21T15:49:47;22.20;96.10
31725;DHT22;18306;40.960;14.836;2023-04-21T15:53:17;22.10;96.20
31725;DHT22;18306;40.960;14.836;2023-04-21T15:55:46;22.10;95.20
31725;DHT22;18306;40.960;14.836;2023-04-21T15:58:21;21.00;95.50
31725;DHT22;18306;40.960;14.836;2023-04-21T16:00:54;21.70;96.10
31725;DHT22;18306;40.960;14.836;2023-04-21T16:03:29;21.20;97.00
31725;DHT22;18306;40.960;14.836;2023-04-21T16:06:05;21.10;97.80
31725;DHT22;18306;40.960;14.836;2023-04-21T16:08:35;21.00;98.20
31725;DHT22;18306;40.960;14.836;2023-04-21T16:11:07;20.90;98.60
31725;DHT22;18306;40.960;14.836;2023-04-21T16:13:39;20.60;99.10
31725;DHT22;18306;40.960;14.836;2023-04-21T16:16:18;20.50;99.50
31725;DHT22;18306;40.960;14.836;2023-04-21T16:18:48;20.60;99.60
31725;DHT22;18306;40.960;14.836;2023-04-21T16:21:20;20.60;99.70
31725;DHT22;18306;40.960;14.836;2023-04-21T16:24:08;20.50;99.60
31725;DHT22;18306;40.960;14.836;2023-04-21T16:26:35;20.70;99.20
31725;DHT22;18306;40.960;14.836;2023-04-21T16:29:08;20.90;98.80
31725;DHT22;18306;40.960;14.836;2023-04-21T16:31:46;21.00;98.30
31725;DHT22;18306;40.960;14.836;2023-04-21T16:34:16;21.10;98.00
31725;DHT22;18306;40.960;14.836;2023-04-21T16:39:57;20.50;97.90
31725;DHT22;18306;40.960;14.836;2023-04-21T16:42:25;20.50;97.90
31725;DHT22;18306;40.960;14.836;2023-04-21T16:44:55;20.50;98.40
31725;DHT22;18306;40.960;14.836;2023-04-21T16:47:24;20.70;98.10
31725;DHT22;18306;40.960;14.836;2023-04-21T16:49:57;21.00;98.40
31725;DHT22;18306;40.960;14.836;2023-04-21T16:52:27;21.00;97.70
31725;DHT22;18306;40.960;14.836;2023-04-21T16:54:59;20.90;96.40
31725;DHT22;18306;40.960;14.836;2023-04-21T16:57:33;20.80;96.70
31725;DHT22;18306;40.960;14.836;2023-04-21T17:00:06;20.60;96.80
31725;DHT22;18306;40.960;14.836;2023-04-21T17:02:37;20.70;97.40
31725;DHT22;18306;40.960;14.836;2023-04-21T17:05:07;20.90;97.70
31725;DHT22;18306;40.960;14.836;2023-04-21T17:07:50;21.10;97.90